createdAt,value
2017-10-15T00:00:07.774Z,15.90
2017-10-15T00:02:37.309Z,24.27
2017-10-15T00:05:07.326Z,20.95
2017-10-15T00:07:37.031Z,24.80
2017-10-15T00:10:06.094Z,11.77
2017-10-15T00:12:34.985Z,35.50
2017-10-15T00:15:04.538Z,16.20
2017-10-15T00:17:33.574Z,16.48
2017-10-15T00:20:02.968Z,19.70
2017-10-15T00:22:31.908Z,16.47
2017-10-15T00:25:01.518Z,14.73
2017-10-15T00:27:31.153Z,11.57
2017-10-15T00:29:59.926Z,16.20
2017-10-15T00:32:28.758Z,16.75
2017-10-15T00:34:58.164Z,19.30
2017-10-15T00:37:27.233Z,10.80
2017-10-15T00:39:56.059Z,17.57
2017-10-15T00:42:25.134Z,29.80
2017-10-15T00:44:54.126Z,13.93
2017-10-15T00:47:23.734Z,16.50
2017-10-15T00:49:52.604Z,21.65
2017-10-15T00:52:21.493Z,17.20
2017-10-15T00:54:50.714Z,15.57
2017-10-15T00:57:19.756Z,20.00
2017-10-15T00:59:48.718Z,13.60
2017-10-15T01:02:18.556Z,11.73
2017-10-15T01:04:47.598Z,15.70
2017-10-15T01:07:16.776Z,19.30
2017-10-15T01:09:45.718Z,15.13
2017-10-15T01:12:15.999Z,15.02
2017-10-15T01:14:45.151Z,15.18
2017-10-15T01:17:14.506Z,21.02
2017-10-15T01:19:43.423Z,17.70
2017-10-15T01:22:13.158Z,21.65
2017-10-15T01:24:42.109Z,22.35
2017-10-15T01:27:11.057Z,20.23
2017-10-15T01:29:40.447Z,21.83
2017-10-15T01:32:09.489Z,25.77
2017-10-15T01:34:38.321Z,21.27
2017-10-15T01:37:07.283Z,22.70
2017-10-15T01:39:37.562Z,21.08
2017-10-15T01:42:07.468Z,19.67
2017-10-15T01:44:36.626Z,16.97
2017-10-15T01:47:05.859Z,18.20
2017-10-15T01:49:34.946Z,16.73
2017-10-15T01:52:04.186Z,21.27
2017-10-15T01:54:33.398Z,28.33
2017-10-15T01:57:03.054Z,16.90
2017-10-15T01:59:32.465Z,18.02
2017-10-15T02:02:01.257Z,21.15
2017-10-15T02:04:30.161Z,19.12
2017-10-15T02:06:58.965Z,22.00
2017-10-15T02:09:28.572Z,19.55
2017-10-15T02:11:58.611Z,25.52
2017-10-15T02:14:27.548Z,17.80
2017-10-15T02:16:56.378Z,13.60
2017-10-15T02:19:26.420Z,18.50
2017-10-15T02:21:55.206Z,18.95
2017-10-15T02:24:24.130Z,22.87
2017-10-15T02:26:53.158Z,16.90
2017-10-15T02:29:22.970Z,16.90
2017-10-15T02:31:53.158Z,18.65
2017-10-15T02:34:22.001Z,13.82
2017-10-15T02:36:50.785Z,16.17
2017-10-15T02:39:19.626Z,15.82
2017-10-15T02:41:48.673Z,18.57
2017-10-15T02:44:18.108Z,18.93
2017-10-15T02:46:47.233Z,31.90
2017-10-15T02:49:17.146Z,19.92
2017-10-15T02:51:47.386Z,29.25
2017-10-15T02:54:17.230Z,21.45
2017-10-15T02:56:46.070Z,30.93
2017-10-15T02:59:15.636Z,23.80
2017-10-15T03:01:44.762Z,27.02
2017-10-15T03:04:14.222Z,21.45
2017-10-15T03:06:43.175Z,17.55
2017-10-15T03:09:12.821Z,24.50
2017-10-15T03:11:41.761Z,21.52
2017-10-15T03:14:11.466Z,19.42
2017-10-15T03:16:41.133Z,21.62
2017-10-15T03:19:10.143Z,26.20
2017-10-15T03:21:39.210Z,22.83
2017-10-15T03:24:08.341Z,26.23
2017-10-15T03:26:37.570Z,22.10
2017-10-15T03:29:06.371Z,27.50
2017-10-15T03:31:35.231Z,28.95
2017-10-15T03:34:05.307Z,24.42
2017-10-15T03:36:34.163Z,27.50
2017-10-15T03:39:03.025Z,24.15
2017-10-15T03:41:32.605Z,30.58
2017-10-15T03:44:01.485Z,29.80
2017-10-15T03:46:30.637Z,31.37
2017-10-15T03:48:59.636Z,42.53
2017-10-15T03:51:29.145Z,39.55
2017-10-15T03:53:58.134Z,41.20
2017-10-15T03:56:27.197Z,34.90
2017-10-15T03:58:57.094Z,33.85
2017-10-15T04:01:26.107Z,38.10
2017-10-15T04:03:55.272Z,38.35
2017-10-15T04:06:24.178Z,90.40
2017-10-15T04:08:53.249Z,49.78
2017-10-15T04:11:22.199Z,48.73
2017-10-15T04:13:51.245Z,40.38
2017-10-15T04:16:20.773Z,31.95
2017-10-15T04:18:50.446Z,37.97
2017-10-15T04:21:19.483Z,34.73
2017-10-15T04:23:49.038Z,42.75
2017-10-15T04:26:18.124Z,31.33
2017-10-15T04:28:47.567Z,41.53
2017-10-15T04:31:17.329Z,27.53
2017-10-15T04:33:46.170Z,28.40
2017-10-15T04:36:15.947Z,32.47
2017-10-15T04:38:45.496Z,34.28
2017-10-15T04:41:15.153Z,34.65
2017-10-15T04:43:44.200Z,35.38
2017-10-15T04:46:13.256Z,32.23
2017-10-15T04:48:42.298Z,33.65
2017-10-15T04:51:11.314Z,36.40
2017-10-15T04:53:40.412Z,46.45
2017-10-15T04:56:09.433Z,54.03
2017-10-15T04:58:39.776Z,54.97
2017-10-15T05:01:09.250Z,42.17
2017-10-15T05:03:38.355Z,47.17
2017-10-15T05:06:07.740Z,47.33
2017-10-15T05:08:36.734Z,35.83
2017-10-15T05:11:06.564Z,35.47
2017-10-15T05:13:35.430Z,35.07
2017-10-15T05:16:04.205Z,54.05
2017-10-15T05:18:33.064Z,38.50
2017-10-15T05:21:02.092Z,39.90
2017-10-15T05:23:31.406Z,39.60
2017-10-15T05:26:00.434Z,30.83
2017-10-15T05:28:29.474Z,34.10
2017-10-15T05:30:58.769Z,31.90
2017-10-15T05:33:27.938Z,33.23
2017-10-15T05:35:57.096Z,34.92
2017-10-15T05:38:27.013Z,40.03
2017-10-15T05:40:57.286Z,38.70
2017-10-15T05:43:26.141Z,41.65
2017-10-15T05:45:55.029Z,30.88
2017-10-15T05:48:23.907Z,35.20
2017-10-15T05:50:53.001Z,27.50
2017-10-15T05:53:22.954Z,41.90
2017-10-15T05:55:51.846Z,36.58
2017-10-15T05:58:20.769Z,32.77
2017-10-15T06:00:49.682Z,34.85
2017-10-15T06:03:19.373Z,31.37
2017-10-15T06:05:49.260Z,32.25
2017-10-15T06:08:18.378Z,61.42
2017-10-15T06:10:47.664Z,44.47
2017-10-15T06:13:16.545Z,37.95
2017-10-15T06:15:45.452Z,37.80
2017-10-15T06:18:14.909Z,42.28
2017-10-15T06:20:44.065Z,36.30
2017-10-15T06:23:13.478Z,39.78
2017-10-15T06:25:43.192Z,65.68
2017-10-15T06:28:12.841Z,54.60
2017-10-15T06:30:41.685Z,37.75
2017-10-15T06:33:11.272Z,47.40
2017-10-15T06:35:41.435Z,46.58
2017-10-15T06:38:10.330Z,52.13
2017-10-15T06:40:39.250Z,41.35
2017-10-15T06:43:08.744Z,39.97
2017-10-15T06:45:37.791Z,61.60
2017-10-15T06:48:06.866Z,183.55
2017-10-15T06:50:36.690Z,115.60
2017-10-15T06:53:06.716Z,98.22
2017-10-15T06:55:35.626Z,56.40
2017-10-15T06:58:04.421Z,48.90
2017-10-15T07:00:33.244Z,51.30
2017-10-15T07:03:02.109Z,57.53
2017-10-15T07:05:31.397Z,73.30
2017-10-15T07:08:00.280Z,46.03
2017-10-15T07:10:29.116Z,36.77
2017-10-15T07:12:58.016Z,34.28
2017-10-15T07:15:27.671Z,41.63
2017-10-15T07:17:56.974Z,42.67
2017-10-15T07:20:26.078Z,38.90
2017-10-15T07:22:54.987Z,37.47
2017-10-15T07:25:24.334Z,40.10
2017-10-15T07:27:53.557Z,36.00
2017-10-15T07:30:22.930Z,35.73
2017-10-15T07:32:51.845Z,32.63
2017-10-15T07:35:20.761Z,34.13
2017-10-15T07:37:50.041Z,32.80
2017-10-15T07:40:19.166Z,63.77
2017-10-15T07:42:48.686Z,31.43
2017-10-15T07:45:18.456Z,49.07
2017-10-15T07:47:47.514Z,33.83
2017-10-15T07:50:16.593Z,28.08
2017-10-15T07:52:46.334Z,26.67
2017-10-15T07:55:15.262Z,28.35
2017-10-15T07:57:44.998Z,37.00
2017-10-15T08:00:15.260Z,34.60
2017-10-15T08:02:46.463Z,35.90
2017-10-15T08:05:18.035Z,25.90
2017-10-15T08:07:50.778Z,36.67
2017-10-15T08:10:23.533Z,39.30
2017-10-15T08:12:56.805Z,38.70
2017-10-15T08:15:29.804Z,37.85
2017-10-15T08:18:01.103Z,46.95
2017-10-15T08:20:31.194Z,30.90
2017-10-15T08:23:00.234Z,33.00
2017-10-15T08:25:29.313Z,25.27
2017-10-15T08:27:58.357Z,23.13
2017-10-15T08:30:27.624Z,19.52
2017-10-15T08:32:56.602Z,17.75
2017-10-15T08:35:25.659Z,19.95
2017-10-15T08:37:55.048Z,19.23
2017-10-15T08:40:24.129Z,19.35
2017-10-15T08:42:54.152Z,27.33
2017-10-15T08:45:23.356Z,17.33
2017-10-15T08:47:52.450Z,20.30
2017-10-15T08:50:22.549Z,13.18
2017-10-15T08:52:51.681Z,30.10
2017-10-15T08:55:21.306Z,10.82
2017-10-15T08:57:50.226Z,12.98
2017-10-15T09:00:19.371Z,17.90
2017-10-15T09:02:49.023Z,12.10
2017-10-15T09:05:19.360Z,10.97
2017-10-15T09:07:48.452Z,12.50
2017-10-15T09:10:17.369Z,26.90
2017-10-15T09:12:46.230Z,10.48
2017-10-15T09:15:15.308Z,16.92
2017-10-15T09:17:44.445Z,11.45
2017-10-15T09:20:13.918Z,15.32
2017-10-15T09:22:43.005Z,11.73
2017-10-15T09:25:11.862Z,15.47
2017-10-15T09:27:41.462Z,8.75
2017-10-15T09:30:10.566Z,19.27
2017-10-15T09:32:40.095Z,15.43
2017-10-15T09:35:09.070Z,15.23
2017-10-15T09:37:37.958Z,11.00
2017-10-15T09:40:07.223Z,18.90
2017-10-15T09:42:36.849Z,17.83
2017-10-15T09:45:06.511Z,13.25
2017-10-15T09:47:35.627Z,17.20
2017-10-15T09:50:04.665Z,17.30
2017-10-15T09:52:33.776Z,9.03
2017-10-15T09:55:02.685Z,12.43
2017-10-15T09:57:31.624Z,10.33
2017-10-15T10:00:00.454Z,17.33
2017-10-15T10:02:29.435Z,11.37
2017-10-15T10:04:58.916Z,12.37
2017-10-15T10:07:27.967Z,9.80
2017-10-15T10:09:56.952Z,12.10
2017-10-15T10:12:26.343Z,9.52
2017-10-15T10:14:55.331Z,8.85
2017-10-15T10:17:24.294Z,11.00
2017-10-15T10:19:53.311Z,11.65
2017-10-15T10:22:22.733Z,11.10
2017-10-15T10:24:51.726Z,6.07
2017-10-15T10:27:20.772Z,8.45
2017-10-15T10:29:49.937Z,9.32
2017-10-15T10:32:19.519Z,9.67
2017-10-15T10:34:48.817Z,12.80
2017-10-15T10:37:17.655Z,6.65
2017-10-15T10:39:46.465Z,8.48
2017-10-15T10:42:15.355Z,13.68
2017-10-15T10:44:44.409Z,7.10
2017-10-15T10:47:15.345Z,5.25
2017-10-15T10:49:46.931Z,10.43
2017-10-15T10:52:22.621Z,6.20
2017-10-15T10:54:52.967Z,13.45
2017-10-15T10:57:22.764Z,5.20
2017-10-15T11:02:26.849Z,8.35
2017-10-15T11:04:55.674Z,9.10
2017-10-15T11:07:24.899Z,11.77
2017-10-15T11:09:54.464Z,8.55
2017-10-15T11:12:23.322Z,14.05
2017-10-15T11:14:52.156Z,16.80
2017-10-15T11:17:20.966Z,6.53
2017-10-15T11:19:50.560Z,10.38
2017-10-15T11:22:21.088Z,12.37
2017-10-15T11:24:51.105Z,4.78
2017-10-15T11:27:20.927Z,11.02
2017-10-15T11:29:50.699Z,7.37
2017-10-15T11:32:19.645Z,10.15
2017-10-15T11:34:48.613Z,8.85
2017-10-15T11:37:18.829Z,9.57
2017-10-15T11:39:48.725Z,6.28
2017-10-15T11:42:17.949Z,7.57
2017-10-15T11:44:47.765Z,10.93
2017-10-15T11:47:18.663Z,11.67
2017-10-15T11:49:49.353Z,9.73
2017-10-15T11:52:18.254Z,9.13
2017-10-15T11:54:47.089Z,5.20
2017-10-15T11:57:16.190Z,7.47
2017-10-15T11:59:46.198Z,5.93
2017-10-15T12:02:15.240Z,9.70
2017-10-15T12:04:44.266Z,14.38
2017-10-15T12:07:13.851Z,8.18
2017-10-15T12:09:42.829Z,7.97
2017-10-15T12:12:11.807Z,12.98
2017-10-15T12:14:41.437Z,7.85
2017-10-15T12:17:11.072Z,8.43
2017-10-15T12:19:40.589Z,9.50
2017-10-15T12:22:09.936Z,8.00
2017-10-15T12:24:38.834Z,6.93
2017-10-15T12:27:08.156Z,8.10
2017-10-15T12:29:37.296Z,5.80
2017-10-15T12:32:06.881Z,9.27
2017-10-15T12:34:36.831Z,15.27
2017-10-15T12:37:05.918Z,16.45
2017-10-15T12:39:35.171Z,8.43
2017-10-15T12:42:04.206Z,8.63
2017-10-15T12:44:33.960Z,9.20
2017-10-15T12:47:03.034Z,14.35
2017-10-15T12:49:32.065Z,14.57
2017-10-15T12:52:01.343Z,8.00
2017-10-15T12:54:30.381Z,16.00
2017-10-15T12:57:00.060Z,14.80
2017-10-15T12:59:29.074Z,12.85
2017-10-15T13:04:26.893Z,7.93
2017-10-15T13:06:55.887Z,12.30
2017-10-15T13:09:25.163Z,11.45
2017-10-15T13:11:53.985Z,7.93
2017-10-15T13:14:23.055Z,8.95
2017-10-15T13:16:52.195Z,15.80
2017-10-15T13:19:21.221Z,14.70
2017-10-15T13:21:51.363Z,8.00
2017-10-15T13:24:35.907Z,7.30
2017-10-15T13:27:06.009Z,15.70
2017-10-15T13:29:36.803Z,26.60
2017-10-15T13:32:06.736Z,10.55
2017-10-15T13:34:35.682Z,9.60
2017-10-15T13:37:04.796Z,9.27
2017-10-15T13:39:34.157Z,16.02
2017-10-15T13:42:04.000Z,15.90
2017-10-15T13:44:33.068Z,8.65
2017-10-15T13:47:02.824Z,10.90
2017-10-15T13:49:31.817Z,14.02
2017-10-15T13:52:01.739Z,17.20
2017-10-15T13:54:30.955Z,9.85
2017-10-15T13:56:59.862Z,12.10
2017-10-15T13:59:29.580Z,14.50
2017-10-15T14:01:59.217Z,11.05
2017-10-15T14:04:28.042Z,44.20
2017-10-15T14:06:56.968Z,24.98
2017-10-15T14:09:26.000Z,14.45
2017-10-15T14:11:55.064Z,38.22
2017-10-15T14:14:24.030Z,21.90
2017-10-15T14:16:53.803Z,17.12
2017-10-15T14:19:22.860Z,16.98
2017-10-15T14:21:53.223Z,17.35
2017-10-15T14:24:22.377Z,15.52
2017-10-15T14:26:51.454Z,43.30
2017-10-15T14:29:21.314Z,17.77
2017-10-15T14:31:50.307Z,16.67
2017-10-15T14:34:19.465Z,19.98
2017-10-15T14:36:48.487Z,11.45
2017-10-15T14:39:17.405Z,12.23
2017-10-15T14:41:46.666Z,9.68
2017-10-15T14:44:15.747Z,19.20
2017-10-15T14:46:44.692Z,12.05
2017-10-15T14:49:14.559Z,26.20
2017-10-15T14:51:43.626Z,19.50
2017-10-15T14:54:13.643Z,22.40
2017-10-15T14:56:43.343Z,16.40
2017-10-15T14:59:13.165Z,17.35
2017-10-15T15:01:42.286Z,35.45
2017-10-15T15:04:11.415Z,20.75
2017-10-15T15:06:41.041Z,29.42
2017-10-15T15:09:10.169Z,22.65
2017-10-15T15:11:39.017Z,27.00
2017-10-15T15:14:08.141Z,34.13
2017-10-15T15:16:38.017Z,20.75
2017-10-15T15:19:07.292Z,30.98
2017-10-15T15:21:36.389Z,23.42
2017-10-15T15:24:05.900Z,21.00
2017-10-15T15:26:35.307Z,21.25
2017-10-15T15:29:04.355Z,24.33
2017-10-15T15:31:33.734Z,28.42
2017-10-15T15:34:03.681Z,26.95
2017-10-15T15:36:33.035Z,31.80
2017-10-15T15:39:02.430Z,23.70
2017-10-15T15:41:31.588Z,30.35
2017-10-15T15:44:01.718Z,25.90
2017-10-15T15:46:31.201Z,38.92
2017-10-15T15:49:01.154Z,38.08
2017-10-15T15:51:30.148Z,27.50
2017-10-15T15:53:58.959Z,23.17
2017-10-15T15:56:28.596Z,18.60
2017-10-15T15:58:57.777Z,28.27
2017-10-15T16:01:27.541Z,21.10
2017-10-15T16:03:57.335Z,21.80
2017-10-15T16:06:26.979Z,28.00
2017-10-15T16:08:56.201Z,32.05
2017-10-15T16:11:26.114Z,71.15
2017-10-15T16:13:56.089Z,47.67
2017-10-15T16:16:24.986Z,57.88
2017-10-15T16:18:54.483Z,52.88
2017-10-15T16:21:23.495Z,67.28
2017-10-15T16:23:52.380Z,47.90
2017-10-15T16:26:23.231Z,36.25
2017-10-15T16:28:54.120Z,26.42
2017-10-15T16:31:24.587Z,26.50
2017-10-15T16:33:54.403Z,51.17
2017-10-15T16:36:23.339Z,24.50
2017-10-15T16:38:52.258Z,45.13
2017-10-15T16:41:21.076Z,43.10
2017-10-15T16:43:51.004Z,63.97
2017-10-15T16:46:19.819Z,57.35
2017-10-15T16:48:49.060Z,92.78
2017-10-15T16:51:18.297Z,35.58
2017-10-15T16:53:47.402Z,38.72
2017-10-15T16:56:16.328Z,28.33
2017-10-15T16:58:46.355Z,21.83
2017-10-15T17:01:15.901Z,46.80
2017-10-15T17:03:44.857Z,49.58
2017-10-15T17:06:14.245Z,25.00
2017-10-15T17:08:43.481Z,25.08
2017-10-15T17:11:12.773Z,17.30
2017-10-15T17:13:42.572Z,16.92
2017-10-15T17:16:11.588Z,25.15
2017-10-15T17:18:40.573Z,16.15
2017-10-15T17:21:09.841Z,20.00
2017-10-15T17:23:39.158Z,20.92
2017-10-15T17:26:08.488Z,14.65
2017-10-15T17:28:37.626Z,20.83
2017-10-15T17:31:06.718Z,74.60
2017-10-15T17:33:36.132Z,47.75
2017-10-15T17:36:05.319Z,30.92
2017-10-15T17:38:34.256Z,38.83
2017-10-15T17:41:03.256Z,40.13
2017-10-15T17:43:32.227Z,48.53
2017-10-15T17:46:01.375Z,33.13
2017-10-15T17:48:30.452Z,39.63
2017-10-15T17:50:59.585Z,33.38
2017-10-15T17:53:28.870Z,52.50
2017-10-15T17:55:58.084Z,39.37
2017-10-15T17:58:27.360Z,28.08
2017-10-15T18:00:57.150Z,25.77
2017-10-15T18:03:27.794Z,29.67
2017-10-15T18:05:57.193Z,23.92
2017-10-15T18:08:26.749Z,24.12
2017-10-15T18:10:57.048Z,28.33
2017-10-15T18:13:26.410Z,23.27
2017-10-15T18:15:56.414Z,23.90
2017-10-15T18:18:25.566Z,59.70
2017-10-15T18:20:55.467Z,26.20
2017-10-15T18:23:25.327Z,26.42
2017-10-15T18:25:54.638Z,23.05
2017-10-15T18:28:23.893Z,20.85
2017-10-15T18:30:53.232Z,24.00
2017-10-15T18:33:23.345Z,21.40
2017-10-15T18:35:52.789Z,22.73
2017-10-15T18:38:21.990Z,23.87
2017-10-15T18:40:51.118Z,33.65
2017-10-15T18:43:20.720Z,22.50
2017-10-15T18:45:52.654Z,29.45
2017-10-15T18:48:23.474Z,23.92
2017-10-15T18:50:53.233Z,19.50
2017-10-15T18:53:23.596Z,25.52
2017-10-15T18:55:53.799Z,21.05
2017-10-15T18:58:24.171Z,15.77
2017-10-15T19:00:55.670Z,40.45
2017-10-15T19:03:25.628Z,23.05
2017-10-15T19:05:57.754Z,113.20
2017-10-15T19:08:29.584Z,48.90
2017-10-15T19:10:59.345Z,25.60
2017-10-15T19:13:30.481Z,20.15
2017-10-15T19:16:00.091Z,22.70
2017-10-15T19:18:29.797Z,30.67
2017-10-15T19:20:59.141Z,29.87
2017-10-15T19:23:28.544Z,26.17
2017-10-15T19:25:57.689Z,28.40
2017-10-15T19:28:27.169Z,35.00
2017-10-15T19:30:56.764Z,28.67
2017-10-15T19:33:26.087Z,25.08
2017-10-15T19:35:55.910Z,29.73
2017-10-15T19:38:25.616Z,82.40
2017-10-15T19:40:55.079Z,42.23
2017-10-15T19:43:26.062Z,38.17
2017-10-15T19:45:55.174Z,26.27
2017-10-15T19:48:24.753Z,27.75
2017-10-15T19:50:53.847Z,29.27
2017-10-15T19:53:23.010Z,68.18
2017-10-15T19:55:53.276Z,43.40
2017-10-15T19:58:22.467Z,23.73
2017-10-15T20:00:51.606Z,22.77
2017-10-15T20:03:20.801Z,31.90
2017-10-15T20:05:50.911Z,33.95
2017-10-15T20:08:20.759Z,24.63
2017-10-15T20:10:50.854Z,24.23
2017-10-15T20:13:21.000Z,29.70
2017-10-15T20:15:50.186Z,24.57
2017-10-15T20:18:20.241Z,91.87
2017-10-15T20:20:49.847Z,33.60
2017-10-15T20:23:19.084Z,37.28
2017-10-15T20:25:48.880Z,29.02
2017-10-15T20:28:19.264Z,31.10
2017-10-15T20:30:48.539Z,27.50
2017-10-15T20:33:18.523Z,25.83
2017-10-15T20:35:47.770Z,23.87
2017-10-15T20:38:17.088Z,23.65
2017-10-15T20:40:46.546Z,25.30
2017-10-15T20:43:21.493Z,22.27
2017-10-15T20:45:52.189Z,34.28
2017-10-15T20:48:21.215Z,25.50
2017-10-15T20:50:51.315Z,21.60
2017-10-15T20:53:20.610Z,20.55
2017-10-15T20:55:49.800Z,26.30
2017-10-15T20:58:19.172Z,19.65
2017-10-15T21:00:48.290Z,27.48
2017-10-15T21:03:17.406Z,25.93
2017-10-15T21:05:47.553Z,30.10
2017-10-15T21:08:17.094Z,25.42
2017-10-15T21:10:47.365Z,32.78
2017-10-15T21:13:18.398Z,26.80
2017-10-15T21:15:49.409Z,24.30
2017-10-15T21:18:19.486Z,24.45
2017-10-15T21:20:49.801Z,34.22
2017-10-15T21:23:19.576Z,35.50
2017-10-15T21:25:48.701Z,31.23
2017-10-15T21:28:19.182Z,34.20
2017-10-15T21:30:53.776Z,37.20
2017-10-15T21:33:23.694Z,26.55
2017-10-15T21:35:53.934Z,29.90
2017-10-15T21:38:22.786Z,38.83
2017-10-15T21:40:51.676Z,40.58
2017-10-15T21:43:20.743Z,43.63
2017-10-15T21:45:50.470Z,48.95
2017-10-15T21:48:19.260Z,61.83
2017-10-15T21:50:50.482Z,41.63
2017-10-15T21:53:20.172Z,64.22
2017-10-15T21:55:50.762Z,28.95
2017-10-15T21:58:20.240Z,40.50
2017-10-15T22:00:52.147Z,34.10
2017-10-15T22:03:22.150Z,30.17
2017-10-15T22:05:51.640Z,33.60
2017-10-15T22:08:20.689Z,29.55
2017-10-15T22:10:50.698Z,32.63
2017-10-15T22:13:20.484Z,28.62
2017-10-15T22:15:49.341Z,22.80
2017-10-15T22:18:22.439Z,26.55
2017-10-15T22:20:55.808Z,27.65
2017-10-15T22:23:24.705Z,23.00
2017-10-15T22:25:53.814Z,31.30
2017-10-15T22:28:22.880Z,36.35
2017-10-15T22:30:52.770Z,32.53
2017-10-15T22:33:22.182Z,28.70
2017-10-15T22:35:51.789Z,36.28
2017-10-15T22:38:21.368Z,30.02
2017-10-15T22:40:50.289Z,26.50
2017-10-15T22:43:19.920Z,35.78
2017-10-15T22:45:49.051Z,28.80
2017-10-15T22:48:17.857Z,29.67
2017-10-15T22:50:46.816Z,26.23
2017-10-15T22:53:15.675Z,29.17
2017-10-15T22:55:44.790Z,26.90
2017-10-15T22:58:13.758Z,32.50
2017-10-15T23:00:43.521Z,29.42
2017-10-15T23:03:12.642Z,27.13
2017-10-15T23:05:42.502Z,38.95
2017-10-15T23:08:11.806Z,32.07
2017-10-15T23:10:40.998Z,30.30
2017-10-15T23:13:09.958Z,30.08
2017-10-15T23:15:39.990Z,29.00
2017-10-15T23:18:08.913Z,28.77
2017-10-15T23:20:37.719Z,35.13
2017-10-15T23:23:08.546Z,27.27
2017-10-15T23:25:37.549Z,33.45
2017-10-15T23:28:07.023Z,27.37
2017-10-15T23:30:36.113Z,24.98
2017-10-15T23:33:05.317Z,30.33
2017-10-15T23:35:34.616Z,26.33
2017-10-15T23:38:03.416Z,24.02
2017-10-15T23:40:32.354Z,29.55
2017-10-15T23:43:01.500Z,27.87
2017-10-15T23:45:30.390Z,35.03
2017-10-15T23:47:59.694Z,39.10
2017-10-15T23:50:28.511Z,26.42
2017-10-15T23:52:58.095Z,26.27
2017-10-15T23:55:26.991Z,31.10
2017-10-15T23:57:55.862Z,25.60
